createdAt,value
2023-03-05T00:01:46.642Z,4.30
2023-03-05T00:04:16.672Z,4.30
2023-03-05T00:06:44.851Z,4.30
2023-03-05T00:09:13.056Z,4.30
2023-03-05T00:11:41.789Z,4.20
2023-03-05T00:14:11.279Z,4.30
2023-03-05T00:16:39.821Z,4.30
2023-03-05T00:19:08.376Z,4.20
2023-03-05T00:21:41.925Z,4.30
2023-03-05T00:24:14.424Z,4.30
2023-03-05T00:26:45.473Z,4.20
2023-03-05T00:29:19.376Z,4.20
2023-03-05T00:31:50.961Z,4.20
2023-03-05T00:34:20.295Z,4.30
2023-03-05T00:36:51.835Z,4.20
2023-03-05T00:39:22.954Z,4.20
2023-03-05T00:41:51.582Z,4.20
2023-03-05T00:44:22.668Z,4.20
2023-03-05T00:46:52.123Z,4.20
2023-03-05T00:49:22.388Z,4.20
2023-03-05T00:51:52.177Z,4.20
2023-03-05T00:54:20.709Z,4.20
2023-03-05T00:56:49.256Z,4.20
2023-03-05T00:59:17.406Z,4.20
2023-03-05T01:01:45.569Z,4.20
2023-03-05T01:04:13.667Z,4.20
2023-03-05T01:06:44.625Z,4.20
2023-03-05T01:09:16.580Z,4.20
2023-03-05T01:11:47.175Z,4.20
2023-03-05T01:14:15.862Z,4.20
2023-03-05T01:16:46.712Z,4.20
2023-03-05T01:19:15.361Z,4.20
2023-03-05T01:21:45.533Z,4.20
2023-03-05T01:24:13.627Z,4.20
2023-03-05T01:26:43.190Z,4.20
2023-03-05T01:29:13.693Z,4.20
2023-03-05T01:31:41.989Z,4.20
2023-03-05T01:34:13.786Z,4.20
2023-03-05T01:36:42.534Z,4.10
2023-03-05T01:39:11.343Z,4.20
2023-03-05T01:41:43.634Z,4.10
2023-03-05T01:44:24.110Z,4.10
2023-03-05T01:46:52.257Z,4.10
2023-03-05T01:49:24.271Z,4.10
2023-03-05T01:52:01.816Z,4.10
2023-03-05T01:54:35.394Z,4.10
2023-03-05T01:57:09.421Z,4.10
2023-03-05T01:59:39.280Z,4.10
2023-03-05T02:02:08.043Z,4.10
2023-03-05T02:04:43.598Z,4.10
2023-03-05T02:07:16.820Z,4.00
2023-03-05T02:09:44.920Z,4.00
2023-03-05T02:12:15.580Z,4.00
2023-03-05T02:14:51.518Z,4.00
2023-03-05T02:17:20.216Z,4.00
2023-03-05T02:19:50.604Z,4.00
2023-03-05T02:22:25.056Z,4.00
2023-03-05T02:24:53.709Z,3.90
2023-03-05T02:27:34.952Z,4.00
2023-03-05T02:30:03.685Z,4.00
2023-03-05T02:32:34.176Z,4.00
2023-03-05T02:35:03.123Z,4.00
2023-03-05T02:37:32.627Z,3.90
2023-03-05T02:40:01.282Z,3.90
2023-03-05T02:42:30.922Z,3.90
2023-03-05T02:44:59.181Z,3.90
2023-03-05T02:47:30.187Z,3.90
2023-03-05T02:49:58.664Z,3.90
2023-03-05T02:52:27.202Z,3.90
2023-03-05T02:54:56.707Z,3.90
2023-03-05T02:57:29.634Z,3.90
2023-03-05T02:59:57.803Z,3.90
2023-03-05T03:02:25.969Z,3.90
2023-03-05T03:04:56.845Z,3.90
2023-03-05T03:07:24.957Z,3.90
2023-03-05T03:09:56.932Z,3.90
2023-03-05T03:12:25.002Z,3.90
2023-03-05T03:14:55.790Z,3.90
2023-03-05T03:17:23.885Z,3.90
2023-03-05T03:19:51.973Z,3.80
2023-03-05T03:22:20.059Z,3.80
2023-03-05T03:24:48.121Z,3.80
2023-03-05T03:27:17.631Z,3.90
2023-03-05T03:29:45.816Z,3.80
2023-03-05T03:32:16.541Z,3.80
2023-03-05T03:34:48.095Z,3.80
2023-03-05T03:37:16.561Z,3.80
2023-03-05T03:39:46.713Z,3.80
2023-03-05T03:42:20.392Z,3.70
2023-03-05T03:44:51.332Z,3.70
2023-03-05T03:47:20.161Z,3.70
2023-03-05T03:49:50.637Z,3.80
2023-03-05T03:52:18.754Z,3.70
2023-03-05T03:54:46.830Z,3.80
2023-03-05T03:57:14.850Z,3.80
2023-03-05T03:59:46.065Z,3.70
2023-03-05T04:02:16.650Z,3.70
2023-03-05T04:04:44.847Z,3.70
2023-03-05T04:07:13.177Z,3.70
2023-03-05T04:09:43.556Z,3.70
2023-03-05T04:12:11.706Z,3.70
2023-03-05T04:14:39.780Z,3.70
2023-03-05T04:17:10.037Z,3.80
2023-03-05T04:19:40.767Z,3.80
2023-03-05T04:22:11.676Z,3.80
2023-03-05T04:24:42.802Z,3.80
2023-03-05T04:27:13.143Z,3.80
2023-03-05T04:29:43.797Z,3.80
2023-03-05T04:32:13.367Z,3.80
2023-03-05T04:34:43.689Z,3.70
2023-03-05T04:37:14.421Z,3.70
2023-03-05T04:39:44.786Z,3.80
2023-03-05T04:42:12.923Z,3.80
2023-03-05T04:44:41.046Z,3.70
2023-03-05T04:47:09.298Z,3.70
2023-03-05T04:49:41.041Z,3.80
2023-03-05T04:52:09.926Z,3.70
2023-03-05T04:54:38.208Z,3.70
2023-03-05T04:57:06.955Z,3.70
2023-03-05T04:59:35.067Z,3.70
2023-03-05T05:02:03.191Z,3.70
2023-03-05T05:04:35.598Z,3.70
2023-03-05T05:07:07.567Z,3.70
2023-03-05T05:09:35.637Z,3.70
2023-03-05T05:12:03.722Z,3.70
2023-03-05T05:14:31.806Z,3.70
2023-03-05T05:17:00.496Z,3.70
2023-03-05T05:19:28.894Z,3.70
2023-03-05T05:22:16.911Z,3.70
2023-03-05T05:25:13.206Z,3.70
2023-03-05T05:27:43.731Z,3.70
2023-03-05T05:30:15.202Z,3.60
2023-03-05T05:32:43.385Z,3.60
2023-03-05T05:35:14.528Z,3.60
2023-03-05T05:37:46.064Z,3.60
2023-03-05T05:40:14.807Z,3.60
2023-03-05T05:42:42.948Z,3.60
2023-03-05T05:45:12.383Z,3.60
2023-03-05T05:47:40.466Z,3.60
2023-03-05T05:50:09.102Z,3.60
2023-03-05T05:52:37.230Z,3.60
2023-03-05T05:55:07.919Z,3.60
2023-03-05T05:57:36.360Z,3.60
2023-03-05T06:00:06.448Z,3.60
2023-03-05T06:02:40.467Z,3.60
2023-03-05T06:05:10.810Z,3.60
2023-03-05T06:07:38.963Z,3.60
2023-03-05T06:10:12.247Z,3.60
2023-03-05T06:12:41.313Z,3.60
2023-03-05T06:15:10.422Z,3.70
2023-03-05T06:17:40.813Z,3.60
2023-03-05T06:20:12.467Z,3.60
2023-03-05T06:22:41.052Z,3.70
2023-03-05T06:25:13.321Z,3.60
2023-03-05T06:27:41.441Z,3.60
2023-03-05T06:30:12.683Z,3.60
2023-03-05T06:32:40.830Z,3.60
2023-03-05T06:35:11.788Z,3.70
2023-03-05T06:37:39.886Z,3.70
2023-03-05T06:40:09.864Z,3.60
2023-03-05T06:42:39.339Z,3.60
2023-03-05T06:45:11.379Z,3.60
2023-03-05T06:47:39.672Z,3.60
2023-03-05T06:50:08.813Z,3.60
2023-03-05T06:52:40.935Z,3.60
2023-03-05T06:55:11.485Z,3.60
2023-03-05T06:57:41.017Z,3.70
2023-03-05T07:00:12.714Z,3.60
2023-03-05T07:02:40.968Z,3.60
2023-03-05T07:05:12.062Z,3.60
2023-03-05T07:07:40.193Z,3.60
2023-03-05T07:10:09.917Z,3.60
2023-03-05T07:12:38.787Z,3.60
2023-03-05T07:15:11.612Z,3.60
2023-03-05T07:17:39.772Z,3.60
2023-03-05T07:20:09.569Z,3.60
2023-03-05T07:22:38.847Z,3.70
2023-03-05T07:25:08.114Z,3.70
2023-03-05T07:27:37.262Z,3.70
2023-03-05T07:30:06.308Z,3.70
2023-03-05T07:32:38.377Z,3.80
2023-03-05T07:35:09.874Z,3.80
2023-03-05T07:37:38.404Z,3.80
2023-03-05T07:40:10.386Z,3.80
2023-03-05T07:42:38.539Z,3.80
2023-03-05T07:45:16.203Z,3.80
2023-03-05T07:47:45.706Z,3.80
2023-03-05T07:50:13.980Z,3.80
2023-03-05T07:52:42.094Z,3.80
2023-03-05T07:55:11.450Z,3.80
2023-03-05T07:57:39.607Z,3.80
2023-03-05T08:00:08.994Z,3.80
2023-03-05T08:02:40.011Z,3.90
2023-03-05T08:05:11.840Z,3.90
2023-03-05T08:07:39.993Z,3.90
2023-03-05T08:10:11.846Z,3.90
2023-03-05T08:12:40.265Z,4.00
2023-03-05T08:15:12.530Z,4.00
2023-03-05T08:17:41.166Z,4.00
2023-03-05T08:20:12.450Z,4.10
2023-03-05T08:22:40.701Z,4.10
2023-03-05T08:25:09.526Z,4.10
2023-03-05T08:27:40.327Z,4.10
2023-03-05T08:30:12.061Z,4.20
2023-03-05T08:32:40.593Z,4.20
2023-03-05T08:35:10.122Z,4.20
2023-03-05T08:37:39.645Z,4.20
2023-03-05T08:40:09.033Z,4.30
2023-03-05T08:42:37.344Z,4.30
2023-03-05T08:45:06.026Z,4.30
2023-03-05T08:47:34.219Z,4.40
2023-03-05T08:50:04.984Z,4.40
2023-03-05T08:52:33.161Z,4.40
2023-03-05T08:55:02.802Z,4.50
2023-03-05T08:57:31.045Z,4.60
2023-03-05T08:59:59.225Z,4.60
2023-03-05T09:02:30.116Z,4.70
2023-03-05T09:04:58.315Z,4.70
2023-03-05T09:07:26.521Z,4.80
2023-03-05T09:09:54.775Z,4.80
2023-03-05T09:12:24.295Z,4.80
2023-03-05T09:14:54.999Z,4.80
2023-03-05T09:17:23.642Z,4.80
2023-03-05T09:19:51.929Z,4.80
2023-03-05T09:22:20.121Z,4.90
2023-03-05T09:24:48.266Z,5.00
2023-03-05T09:27:18.638Z,5.00
2023-03-05T09:29:48.163Z,5.00
2023-03-05T09:32:16.406Z,5.00
2023-03-05T09:34:47.634Z,5.10
2023-03-05T09:37:15.808Z,5.10
2023-03-05T09:39:43.956Z,5.10
2023-03-05T09:42:29.456Z,5.20
2023-03-05T09:45:13.941Z,5.20
2023-03-05T09:47:52.165Z,5.20
2023-03-05T09:50:34.144Z,5.30
2023-03-05T09:53:07.164Z,5.40
2023-03-05T09:55:40.921Z,5.40
2023-03-05T09:58:15.206Z,5.40
2023-03-05T10:00:46.803Z,5.40
2023-03-05T10:03:23.797Z,5.50
2023-03-05T10:06:05.318Z,5.50
2023-03-05T10:08:46.441Z,5.60
2023-03-05T10:11:31.541Z,5.50
2023-03-05T10:13:59.816Z,5.50
2023-03-05T10:16:52.629Z,5.50
2023-03-05T10:19:34.181Z,5.50
2023-03-05T10:22:15.636Z,5.50
2023-03-05T10:25:00.180Z,5.50
2023-03-05T10:27:41.450Z,5.60
2023-03-05T10:30:35.309Z,5.60
2023-03-05T10:33:16.653Z,5.70
2023-03-05T10:36:24.415Z,5.70
2023-03-05T10:39:37.490Z,5.70
2023-03-05T10:42:17.405Z,5.80
2023-03-05T10:44:51.941Z,5.80
2023-03-05T10:47:26.585Z,5.90
2023-03-05T10:49:57.916Z,6.00
2023-03-05T10:52:32.322Z,6.10
2023-03-05T10:55:00.534Z,6.20
2023-03-05T10:57:32.071Z,6.40
2023-03-05T11:00:13.268Z,6.50
2023-03-05T11:02:57.718Z,6.60
2023-03-05T11:05:49.022Z,6.70
2023-03-05T11:08:34.146Z,6.80
2023-03-05T11:11:17.130Z,6.80
2023-03-05T11:13:59.467Z,6.80
2023-03-05T11:16:30.649Z,6.90
2023-03-05T11:19:19.514Z,6.90
2023-03-05T11:22:10.917Z,6.90
2023-03-05T11:24:39.327Z,6.90
2023-03-05T11:27:23.792Z,6.90
2023-03-05T11:29:52.716Z,6.90
2023-03-05T11:32:24.415Z,6.90
2023-03-05T11:34:56.434Z,7.00
2023-03-05T11:37:33.456Z,7.00
2023-03-05T11:40:21.795Z,7.20
2023-03-05T11:42:56.773Z,7.20
2023-03-05T11:45:29.383Z,7.30
2023-03-05T11:48:07.238Z,7.30
2023-03-05T11:50:36.954Z,7.20
2023-03-05T11:53:12.433Z,7.30
2023-03-05T11:55:43.579Z,7.20
2023-03-05T11:58:27.532Z,7.20
2023-03-05T12:00:56.315Z,7.10
2023-03-05T12:03:27.512Z,7.20
2023-03-05T12:06:00.651Z,7.20
2023-03-05T12:08:35.564Z,7.30
2023-03-05T12:11:09.076Z,7.40
2023-03-05T12:13:43.223Z,7.40
2023-03-05T12:16:24.352Z,7.40
2023-03-05T12:19:09.351Z,7.50
2023-03-05T12:21:41.968Z,7.40
2023-03-05T12:24:37.393Z,7.40
2023-03-05T12:27:11.792Z,7.50
2023-03-05T12:29:45.917Z,7.50
2023-03-05T12:33:00.833Z,7.60
2023-03-05T12:35:37.705Z,7.70
2023-03-05T12:38:28.609Z,7.80
2023-03-05T12:41:43.046Z,7.80
2023-03-05T12:44:20.360Z,7.80
2023-03-05T12:47:19.354Z,7.80
2023-03-05T12:49:51.001Z,7.80
2023-03-05T12:52:27.622Z,7.80
2023-03-05T12:55:20.268Z,7.80
2023-03-05T12:57:54.463Z,7.80
2023-03-05T13:00:28.258Z,7.80
2023-03-05T13:03:03.199Z,7.80
2023-03-05T13:05:36.904Z,7.80
2023-03-05T13:08:15.907Z,7.70
2023-03-05T13:10:53.198Z,7.70
2023-03-05T13:13:22.166Z,7.70
2023-03-05T13:15:53.017Z,7.70
2023-03-05T13:18:24.451Z,7.70
2023-03-05T13:21:04.484Z,7.60
2023-03-05T13:23:34.036Z,7.60
2023-03-05T13:26:10.025Z,7.60
2023-03-05T13:28:39.480Z,7.60
2023-03-05T13:31:17.665Z,7.70
2023-03-05T13:33:54.332Z,7.60
2023-03-05T13:36:23.569Z,7.50
2023-03-05T13:38:52.488Z,7.50
2023-03-05T13:41:25.174Z,7.60
2023-03-05T13:43:55.053Z,7.60
2023-03-05T13:46:31.817Z,7.60
2023-03-05T13:49:19.412Z,7.60
2023-03-05T13:51:51.735Z,7.70
2023-03-05T13:54:23.355Z,7.70
2023-03-05T13:56:53.582Z,7.70
2023-03-05T13:59:24.947Z,7.70
2023-03-05T14:01:53.910Z,7.70
2023-03-05T14:04:26.341Z,7.70
2023-03-05T14:06:58.553Z,7.70
2023-03-05T14:09:28.566Z,7.70
2023-03-05T14:11:59.137Z,7.80
2023-03-05T14:14:29.077Z,7.80
2023-03-05T14:17:17.817Z,7.80
2023-03-05T14:19:47.529Z,7.70
2023-03-05T14:22:32.441Z,7.70
2023-03-05T14:25:00.622Z,7.70
2023-03-05T14:27:32.277Z,7.70
2023-03-05T14:30:03.983Z,7.70
2023-03-05T14:32:34.674Z,7.60
2023-03-05T14:35:07.242Z,7.60
2023-03-05T14:37:42.064Z,7.70
2023-03-05T14:40:20.766Z,7.70
2023-03-05T14:42:53.652Z,7.60
2023-03-05T14:45:24.017Z,7.70
2023-03-05T14:47:53.250Z,7.60
2023-03-05T14:50:24.757Z,7.60
2023-03-05T14:52:55.881Z,7.60
2023-03-05T14:55:31.249Z,7.60
2023-03-05T14:58:03.285Z,7.60
2023-03-05T15:00:33.774Z,7.60
2023-03-05T15:03:02.128Z,7.60
2023-03-05T15:05:34.912Z,7.60
2023-03-05T15:08:03.834Z,7.60
2023-03-05T15:10:32.068Z,7.60
2023-03-05T15:13:00.336Z,7.60
2023-03-05T15:15:28.637Z,7.50
2023-03-05T15:17:57.419Z,7.50
2023-03-05T15:20:28.069Z,7.40
2023-03-05T15:22:57.733Z,7.40
2023-03-05T15:25:28.814Z,7.30
2023-03-05T15:27:57.185Z,7.30
2023-03-05T15:30:28.622Z,7.20
2023-03-05T15:32:58.979Z,7.20
2023-03-05T15:35:27.898Z,7.20
2023-03-05T15:37:57.984Z,7.20
2023-03-05T15:40:29.300Z,7.10
2023-03-05T15:43:01.373Z,7.10
2023-03-05T15:45:31.808Z,7.00
2023-03-05T15:48:00.115Z,7.00
2023-03-05T15:50:28.639Z,7.00
2023-03-05T15:53:01.961Z,6.90
2023-03-05T15:55:32.603Z,6.90
2023-03-05T16:00:38.111Z,6.90
2023-03-05T16:03:06.532Z,6.90
2023-03-05T16:05:38.678Z,6.90
2023-03-05T16:08:09.503Z,6.90
2023-03-05T16:10:40.924Z,6.90
2023-03-05T16:13:14.943Z,6.80
2023-03-05T16:15:43.948Z,6.80
2023-03-05T16:18:17.908Z,6.80
2023-03-05T16:20:49.034Z,6.80
2023-03-05T16:23:18.868Z,6.70
2023-03-05T16:25:47.057Z,6.70
2023-03-05T16:28:15.424Z,6.70
2023-03-05T16:30:43.997Z,6.60
2023-03-05T16:33:12.335Z,6.60
2023-03-05T16:35:43.698Z,6.60
2023-03-05T16:38:12.108Z,6.50
2023-03-05T16:41:06.775Z,6.50
2023-03-05T16:43:32.546Z,6.50
2023-03-05T16:46:00.788Z,6.50
2023-03-05T16:48:30.944Z,6.50
2023-03-05T16:51:00.324Z,6.50
2023-03-05T16:53:28.820Z,6.50
2023-03-05T16:55:58.505Z,6.50
2023-03-05T16:58:26.856Z,6.40
2023-03-05T17:00:55.078Z,6.40
2023-03-05T17:03:23.317Z,6.40
2023-03-05T17:05:51.596Z,6.30
2023-03-05T17:08:19.756Z,6.30
2023-03-05T17:10:47.915Z,6.30
2023-03-05T17:13:20.477Z,6.20
2023-03-05T17:15:48.625Z,6.20
2023-03-05T17:18:16.732Z,6.20
2023-03-05T17:20:44.945Z,6.20
2023-03-05T17:23:13.296Z,6.20
2023-03-05T17:25:41.592Z,6.20
2023-03-05T17:28:12.160Z,6.20
2023-03-05T17:30:41.911Z,6.10
2023-03-05T17:33:11.664Z,6.10
2023-03-05T17:35:40.306Z,6.10
2023-03-05T17:38:10.788Z,6.10
2023-03-05T17:40:41.449Z,6.10
2023-03-05T17:43:09.762Z,6.10
2023-03-05T17:46:13.877Z,6.00
2023-03-05T17:53:00.989Z,6.00
2023-03-05T17:55:29.591Z,6.00
2023-03-05T17:57:58.679Z,5.90
2023-03-05T18:00:28.512Z,5.90
2023-03-05T18:03:01.229Z,5.90
2023-03-05T18:05:30.499Z,5.90
2023-03-05T18:08:03.407Z,5.80
2023-03-05T18:10:34.447Z,5.80
2023-03-05T18:13:02.746Z,5.80
2023-03-05T18:15:33.472Z,5.80
2023-03-05T18:18:05.649Z,5.80
2023-03-05T18:20:36.004Z,5.80
2023-03-05T18:23:06.307Z,5.70
2023-03-05T18:25:35.080Z,5.70
2023-03-05T18:28:05.412Z,5.70
2023-03-05T18:30:34.432Z,5.70
2023-03-05T18:33:04.690Z,5.70
2023-03-05T18:35:35.477Z,5.70
2023-03-05T18:38:03.713Z,5.70
2023-03-05T18:40:37.092Z,5.60
2023-03-05T18:43:05.459Z,5.60
2023-03-05T18:45:34.533Z,5.60
2023-03-05T18:48:06.569Z,5.60
2023-03-05T18:50:34.892Z,5.60
2023-03-05T18:53:03.032Z,5.60
2023-03-05T18:55:33.960Z,5.50
2023-03-05T18:58:05.066Z,5.50
2023-03-05T19:00:33.584Z,5.50
2023-03-05T19:03:05.744Z,5.50
2023-03-05T19:05:37.882Z,5.50
2023-03-05T19:08:06.719Z,5.50
2023-03-05T19:10:35.267Z,5.40
2023-03-05T19:13:15.810Z,5.40
2023-03-05T19:16:16.914Z,5.40
2023-03-05T19:18:57.274Z,5.40
2023-03-05T19:21:27.062Z,5.40
2023-03-05T19:23:57.525Z,5.30
2023-03-05T19:26:28.330Z,5.30
2023-03-05T19:28:56.425Z,5.30
2023-03-05T19:31:27.410Z,5.30
2023-03-05T19:33:56.278Z,5.20
2023-03-05T19:36:24.667Z,5.20
2023-03-05T19:38:56.469Z,5.20
2023-03-05T19:41:26.288Z,5.10
2023-03-05T19:43:54.702Z,5.10
2023-03-05T19:46:22.914Z,5.10
2023-03-05T19:48:51.170Z,5.10
2023-03-05T19:51:24.014Z,5.00
2023-03-05T19:53:52.499Z,5.00
2023-03-05T19:56:22.386Z,5.00
2023-03-05T19:58:50.769Z,5.00
2023-03-05T20:01:23.745Z,5.00
2023-03-05T20:03:55.564Z,5.00
2023-03-05T20:06:27.639Z,5.00
2023-03-05T20:08:59.601Z,5.00
2023-03-05T20:11:29.369Z,5.00
2023-03-05T20:14:14.631Z,4.90
2023-03-05T20:16:44.174Z,4.90
2023-03-05T20:19:17.277Z,4.90
2023-03-05T20:21:46.325Z,4.80
2023-03-05T20:24:18.590Z,4.90
2023-03-05T20:26:48.945Z,4.80
2023-03-05T20:29:18.698Z,4.80
2023-03-05T20:31:47.291Z,4.80
2023-03-05T20:34:19.545Z,4.80
2023-03-05T20:36:48.001Z,4.80
2023-03-05T20:39:19.206Z,4.80
2023-03-05T20:41:51.223Z,4.70
2023-03-05T20:44:19.460Z,4.70
2023-03-05T20:46:59.601Z,4.70
2023-03-05T20:49:29.978Z,4.70
2023-03-05T20:52:00.667Z,4.70
2023-03-05T20:54:31.961Z,4.70
2023-03-05T20:57:03.577Z,4.70
2023-03-05T20:59:34.230Z,4.70
2023-03-05T21:02:02.492Z,4.60
2023-03-05T21:04:30.715Z,4.60
2023-03-05T21:06:59.040Z,4.60
2023-03-05T21:09:28.787Z,4.60
2023-03-05T21:13:10.817Z,4.60
2023-03-05T21:15:41.905Z,4.60
2023-03-05T21:18:13.059Z,4.60
2023-03-05T21:20:41.325Z,4.60
2023-03-05T21:23:12.663Z,4.60
2023-03-05T21:25:40.866Z,4.60
2023-03-05T21:28:12.305Z,4.60
2023-03-05T21:30:46.506Z,4.60
2023-03-05T21:33:19.088Z,4.50
2023-03-05T21:35:49.772Z,4.60
2023-03-05T21:38:22.984Z,4.60
2023-03-05T21:40:54.612Z,4.50
2023-03-05T21:43:26.419Z,4.50
2023-03-05T21:46:17.102Z,4.60
2023-03-05T21:48:47.484Z,4.60
2023-03-05T21:51:19.217Z,4.50
2023-03-05T21:53:51.264Z,4.60
2023-03-05T21:56:24.055Z,4.50
2023-03-05T21:58:52.892Z,4.50
2023-03-05T22:01:24.542Z,4.50
2023-03-05T22:03:56.009Z,4.50
2023-03-05T22:06:27.640Z,4.50
2023-03-05T22:08:55.773Z,4.50
2023-03-05T22:11:26.551Z,4.50
2023-03-05T22:13:54.728Z,4.50
2023-03-05T22:16:26.174Z,4.40
2023-03-05T22:18:54.923Z,4.40
2023-03-05T22:21:27.782Z,4.40
2023-03-05T22:23:57.026Z,4.40
2023-03-05T22:26:26.194Z,4.40
2023-03-05T22:28:54.449Z,4.30
2023-03-05T22:31:28.353Z,4.30
2023-03-05T22:33:56.442Z,4.30
2023-03-05T22:36:25.048Z,4.30
2023-03-05T22:38:53.447Z,4.30
2023-03-05T22:41:22.040Z,4.30
2023-03-05T22:43:52.988Z,4.30
2023-03-05T22:46:24.070Z,4.30
2023-03-05T22:48:56.601Z,4.30
2023-03-05T22:51:26.920Z,4.30
2023-03-05T22:53:55.041Z,4.20
2023-03-05T22:56:23.264Z,4.20
2023-03-05T22:58:51.431Z,4.20
2023-03-05T23:01:24.621Z,4.20
2023-03-05T23:04:03.625Z,4.20
2023-03-05T23:06:36.237Z,4.20
2023-03-05T23:09:06.655Z,4.10
2023-03-05T23:11:34.781Z,4.10
2023-03-05T23:14:02.884Z,4.10
2023-03-05T23:16:31.079Z,4.10
2023-03-05T23:19:01.331Z,4.10
2023-03-05T23:21:31.718Z,4.10
2023-03-05T23:24:01.188Z,4.20
2023-03-05T23:26:29.366Z,4.20
2023-03-05T23:29:00.048Z,4.10
2023-03-05T23:31:30.266Z,4.20
2023-03-05T23:34:00.677Z,4.20
2023-03-05T23:36:28.803Z,4.10
2023-03-05T23:39:00.871Z,4.10
2023-03-05T23:41:28.993Z,4.10
2023-03-05T23:43:59.439Z,4.10
2023-03-05T23:46:27.548Z,4.10
2023-03-05T23:48:55.753Z,4.10
2023-03-05T23:51:26.186Z,4.10
2023-03-05T23:53:54.309Z,4.00
2023-03-05T23:56:23.784Z,4.00
2023-03-05T23:58:56.058Z,4.00
